Time;durP1;ratioP1;P1;durP2;ratioP2;P2;SDS_P1;SDS_P2;PMS_P1;PMS_P2;Temp;Humidity;BMP_temperature;BMP_pressure;BME280_temperature;BME280_humidity;BME280_pressure;Samples;Min_cycle;Max_cycle;Signal;HPM_P1;HPM_P2
2022/04/20 08:10:20;;;;;;;2.37;2.10;;;;;;;;;;648708;220;27856;-74
2022/04/20 08:12:48;;;;;;;2.10;1.90;;;;;;;;;;628144;228;27798;-74
2022/04/20 08:15:18;;;;;;;2.13;1.97;;;;;;;;;;628048;225;27992;-72
2022/04/20 08:17:46;;;;;;;2.23;1.90;;;;;;;;;;627873;228;27518;-73
2022/04/20 08:20:14;;;;;;;2.70;1.90;;;;;;;;;;627692;227;27777;-72
2022/04/20 08:22:42;;;;;;;4.20;1.70;;;;;;;;;;630231;225;28054;-72
2022/04/20 08:25:10;;;;;;;4.37;1.90;;;;;;;;;;629237;225;27548;-74
2022/04/20 08:27:39;;;;;;;14.10;3.90;;;;;;;;;;638173;224;28120;-80
2022/04/20 08:30:08;;;;;;;4.27;3.97;;;;;;;;;;633899;222;27614;-75
2022/04/20 08:32:38;;;;;;;4.43;4.03;;;;;;;;;;630860;227;27866;-77
2022/04/20 08:35:05;;;;;;;4.10;3.70;;;;;;;;;;629006;225;27786;-76
2022/04/20 08:37:33;;;;;;;4.03;3.27;;;;;;;;;;627498;225;27585;-70
2022/04/20 08:40:01;;;;;;;3.47;3.17;;;;;;;;;;636042;221;27592;-70
2022/04/20 08:42:30;;;;;;;4.63;2.60;;;;;;;;;;631793;225;27943;-72
2022/04/20 08:45:01;;;;;;;4.23;2.93;;;;;;;;;;630096;225;27561;-71
2022/04/20 08:47:28;;;;;;;4.50;3.13;;;;;;;;;;628669;227;110089;-71
2022/04/20 08:49:55;;;;;;;2.70;2.50;;;;;;;;;;637045;224;27967;-71
2022/04/20 08:54:56;;;;;;;3.07;2.80;;;;;;;;;;634170;224;27515;-73
2022/04/20 08:57:25;;;;;;;4.57;3.33;;;;;;;;;;634192;225;27989;-73
2022/04/20 08:59:54;;;;;;;3.13;2.83;;;;;;;;;;634905;224;27544;-74
2022/04/20 09:02:24;;;;;;;3.27;2.17;;;;;;;;;;637237;224;27466;-71
2022/04/20 09:04:49;;;;;;;2.90;2.17;;;;;;;;;;639432;224;27534;-73
2022/04/20 09:07:18;;;;;;;4.63;2.20;;;;;;;;;;640084;224;27477;-72
2022/04/20 09:09:46;;;;;;;4.53;2.97;;;;;;;;;;639696;223;27959;-72
2022/04/20 09:12:15;;;;;;;2.87;2.30;;;;;;;;;;639222;224;27637;-71
2022/04/20 09:14:43;;;;;;;3.87;2.10;;;;;;;;;;639699;224;27563;-69
2022/04/20 09:17:11;;;;;;;2.20;2.10;;;;;;;;;;639254;223;27511;-72
2022/04/20 09:19:39;;;;;;;2.23;1.60;;;;;;;;;;635975;224;27522;-71
2022/04/20 09:22:13;;;;;;;2.43;2.20;;;;;;;;;;635517;224;27505;-69
2022/04/20 09:24:41;;;;;;;2.03;1.93;;;;;;;;;;635191;224;27812;-71
2022/04/20 09:27:09;;;;;;;3.47;1.80;;;;;;;;;;637312;224;27516;-73
2022/04/20 09:29:37;;;;;;;3.93;2.33;;;;;;;;;;637280;224;27945;-71
2022/04/20 09:32:05;;;;;;;2.97;2.70;;;;;;;;;;634357;224;27535;-71
2022/04/20 09:34:34;;;;;;;5.03;2.80;;;;;;;;;;634760;224;27498;-70
2022/04/20 09:37:14;;;;;;;3.73;2.63;;;;;;;;;;634607;224;27570;-70
2022/04/20 09:39:46;;;;;;;5.30;2.40;;;;;;;;;;634327;224;27467;-72
2022/04/20 09:42:14;;;;;;;2.77;2.57;;;;;;;;;;634169;224;27527;-71
2022/04/20 09:44:46;;;;;;;2.40;2.00;;;;;;;;;;634250;224;27475;-72
2022/04/20 09:50:01;;;;;;;2.90;2.47;;;;;;;;;;633329;224;28478;-71
2022/04/20 09:52:34;;;;;;;10.13;3.20;;;;;;;;;;638700;224;27521;-78
2022/04/20 09:55:05;;;;;;;2.77;2.57;;;;;;;;;;635064;224;27496;-81
2022/04/20 09:57:31;;;;;;;4.17;2.27;;;;;;;;;;634703;224;27501;-81
2022/04/20 09:59:59;;;;;;;3.40;2.50;;;;;;;;;;634837;224;28032;-79
2022/04/20 10:02:28;;;;;;;3.57;2.30;;;;;;;;;;634465;225;28108;-73
2022/04/20 10:04:55;;;;;;;5.00;3.03;;;;;;;;;;634292;224;27496;-74
2022/04/20 10:07:23;;;;;;;4.30;2.40;;;;;;;;;;639457;224;27463;-67
2022/04/20 10:09:51;;;;;;;2.60;2.40;;;;;;;;;;639330;224;27475;-70
2022/04/20 10:12:19;;;;;;;2.77;2.10;;;;;;;;;;630184;224;27930;-70
2022/04/20 10:17:24;;;;;;;3.37;2.00;;;;;;;;;;640074;224;27480;-72
2022/04/20 10:19:52;;;;;;;3.97;2.40;;;;;;;;;;639765;223;27530;-71
2022/04/20 10:22:21;;;;;;;4.07;2.00;;;;;;;;;;636586;224;27507;-71
2022/04/20 10:24:50;;;;;;;4.07;1.90;;;;;;;;;;634080;224;27951;-72
2022/04/20 10:27:18;;;;;;;7.83;2.47;;;;;;;;;;639009;224;27464;-72
2022/04/20 10:29:47;;;;;;;6.07;2.40;;;;;;;;;;636528;224;27537;-70
2022/04/20 10:32:23;;;;;;;2.87;2.27;;;;;;;;;;640836;222;27539;-75
2022/04/20 10:34:51;;;;;;;5.03;2.50;;;;;;;;;;641443;223;27517;-72
2022/04/20 10:37:22;;;;;;;2.43;1.60;;;;;;;;;;641128;223;27911;-74
2022/04/20 10:39:48;;;;;;;3.27;2.03;;;;;;;;;;640482;224;27482;-72
2022/04/20 10:42:17;;;;;;;4.23;2.27;;;;;;;;;;640054;224;27509;-73
2022/04/20 10:45:01;;;;;;;2.73;2.30;;;;;;;;;;639775;223;27568;-72
2022/04/20 10:47:33;;;;;;;5.83;2.20;;;;;;;;;;639940;224;27545;-73
2022/04/20 10:50:07;;;;;;;5.30;2.20;;;;;;;;;;639838;223;27516;-75
2022/04/20 10:52:36;;;;;;;2.90;1.73;;;;;;;;;;638608;224;27483;-74
2022/04/20 10:55:04;;;;;;;2.60;2.17;;;;;;;;;;634401;224;27482;-75
2022/04/20 10:57:33;;;;;;;3.17;1.83;;;;;;;;;;639833;224;27557;-73
2022/04/20 11:00:20;;;;;;;3.77;2.17;;;;;;;;;;639913;224;27557;-75
2022/04/20 11:02:49;;;;;;;2.57;1.80;;;;;;;;;;638489;223;27577;-72
2022/04/20 11:05:16;;;;;;;4.37;2.00;;;;;;;;;;640339;223;27464;-73
2022/04/20 11:07:50;;;;;;;7.70;2.40;;;;;;;;;;640055;224;28196;-73
2022/04/20 11:10:18;;;;;;;3.33;2.07;;;;;;;;;;636827;224;27520;-74
2022/04/20 11:20:45;;;;;;;2.30;2.10;;;;;;;;;;634140;224;27493;-72
2022/04/20 11:23:16;;;;;;;2.40;1.83;;;;;;;;;;634226;225;27541;-72
2022/04/20 11:25:43;;;;;;;3.10;2.20;;;;;;;;;;635526;223;27535;-72
2022/04/20 11:28:16;;;;;;;3.60;2.13;;;;;;;;;;637235;224;27474;-72
2022/04/20 11:30:44;;;;;;;2.77;2.57;;;;;;;;;;635828;223;27930;-73
2022/04/20 11:33:13;;;;;;;4.20;3.43;;;;;;;;;;638608;224;27518;-72
2022/04/20 11:35:42;;;;;;;4.13;3.50;;;;;;;;;;639944;223;27505;-73
2022/04/20 11:38:09;;;;;;;4.60;4.10;;;;;;;;;;636950;224;28162;-69
2022/04/20 11:40:37;;;;;;;5.77;4.60;;;;;;;;;;633912;223;27541;-73
2022/04/20 11:43:05;;;;;;;4.30;3.90;;;;;;;;;;634187;224;27508;-73
2022/04/20 11:45:33;;;;;;;5.20;3.93;;;;;;;;;;637552;224;27507;-72
2022/04/20 11:48:01;;;;;;;4.23;3.93;;;;;;;;;;640609;223;27522;-72
2022/04/20 11:50:29;;;;;;;3.70;3.40;;;;;;;;;;637096;224;28182;-72
2022/04/20 11:52:57;;;;;;;4.13;3.73;;;;;;;;;;637148;223;27512;-73
2022/04/20 11:55:26;;;;;;;5.13;4.43;;;;;;;;;;640706;223;27512;-73
2022/04/20 11:57:53;;;;;;;5.07;4.67;;;;;;;;;;640682;223;27932;-73
2022/04/20 12:00:21;;;;;;;7.10;4.43;;;;;;;;;;637449;224;27515;-72
2022/04/20 12:02:49;;;;;;;4.53;3.97;;;;;;;;;;635127;224;27492;-73
2022/04/20 12:05:18;;;;;;;5.00;3.93;;;;;;;;;;640086;224;27530;-72
2022/04/20 12:07:45;;;;;;;4.37;3.93;;;;;;;;;;639795;224;27463;-72
2022/04/20 12:10:14;;;;;;;4.40;4.10;;;;;;;;;;639741;224;27504;-72
2022/04/20 12:12:42;;;;;;;3.13;2.90;;;;;;;;;;630235;224;28068;-72
2022/04/20 12:15:09;;;;;;;3.03;2.53;;;;;;;;;;637296;224;27523;-71
2022/04/20 12:17:38;;;;;;;2.50;2.30;;;;;;;;;;634476;226;27703;-69
2022/04/20 12:20:06;;;;;;;4.50;2.40;;;;;;;;;;634284;224;27524;-70
2022/04/20 12:22:34;;;;;;;2.60;2.40;;;;;;;;;;634071;225;27503;-72
2022/04/20 12:25:06;;;;;;;5.00;1.93;;;;;;;;;;634174;224;27998;-74
2022/04/20 12:27:42;;;;;;;2.03;1.90;;;;;;;;;;640868;224;27482;-71
2022/04/20 12:30:11;;;;;;;2.00;1.90;;;;;;;;;;637045;224;27521;-69
2022/04/20 12:32:40;;;;;;;3.13;2.20;;;;;;;;;;640093;224;27504;-69
2022/04/20 12:35:07;;;;;;;4.03;2.23;;;;;;;;;;637293;224;27549;-69
2022/04/20 12:37:39;;;;;;;2.10;1.90;;;;;;;;;;634177;225;28191;-70
2022/04/20 12:40:09;;;;;;;5.13;2.67;;;;;;;;;;633875;224;27534;-69
2022/04/20 12:42:37;;;;;;;3.10;1.80;;;;;;;;;;634164;225;27565;-68
2022/04/20 12:45:05;;;;;;;5.40;2.40;;;;;;;;;;623984;227;27608;-69
2022/04/20 12:47:33;;;;;;;5.10;2.77;;;;;;;;;;631704;227;27479;-72
2022/04/20 12:50:16;;;;;;;3.53;2.40;;;;;;;;;;636325;224;27848;-69
2022/04/20 12:52:49;;;;;;;4.87;2.47;;;;;;;;;;636624;223;27931;-69
2022/04/20 12:55:17;;;;;;;4.00;2.37;;;;;;;;;;640654;222;27950;-68
2022/04/20 13:02:59;;;;;;;4.83;2.10;;;;;;;;;;640160;224;27536;-68
2022/04/20 13:05:27;;;;;;;3.63;2.47;;;;;;;;;;639966;223;27956;-67
2022/04/20 13:07:55;;;;;;;4.50;1.90;;;;;;;;;;636855;224;27472;-70
2022/04/20 13:10:23;;;;;;;2.57;2.10;;;;;;;;;;634738;224;27589;-68
2022/04/20 13:12:51;;;;;;;2.03;1.90;;;;;;;;;;634520;224;27529;-67
2022/04/20 13:15:19;;;;;;;3.90;2.10;;;;;;;;;;634413;224;27474;-67
2022/04/20 13:17:48;;;;;;;2.63;2.43;;;;;;;;;;634328;224;25821;-66
2022/04/20 13:20:17;;;;;;;4.47;2.30;;;;;;;;;;634943;224;27467;-67
2022/04/20 13:22:45;;;;;;;2.43;2.23;;;;;;;;;;632093;227;27488;-68
2022/04/20 13:30:24;;;;;;;3.40;2.53;;;;;;;;;;637364;224;27544;-67
2022/04/20 13:32:50;;;;;;;5.23;1.93;;;;;;;;;;639691;224;27943;-66
2022/04/20 13:35:18;;;;;;;3.50;1.83;;;;;;;;;;637170;224;27456;-68
2022/04/20 13:37:46;;;;;;;2.87;2.50;;;;;;;;;;633993;226;27499;-68
2022/04/20 13:40:14;;;;;;;2.30;2.20;;;;;;;;;;636664;224;27539;-68
2022/04/20 13:42:42;;;;;;;2.43;1.73;;;;;;;;;;635295;223;27463;-68
2022/04/20 13:45:11;;;;;;;2.50;2.30;;;;;;;;;;636591;224;27547;-68
2022/04/20 13:47:38;;;;;;;2.27;2.07;;;;;;;;;;640019;223;27975;-68
2022/04/20 13:50:08;;;;;;;2.10;1.80;;;;;;;;;;639696;224;27559;-67
2022/04/20 13:52:36;;;;;;;2.50;1.83;;;;;;;;;;639318;224;27510;-68
2022/04/20 13:55:03;;;;;;;2.73;2.27;;;;;;;;;;639593;224;27931;-67
2022/04/20 13:57:32;;;;;;;2.33;2.13;;;;;;;;;;639466;224;27869;-68
2022/04/20 13:59:59;;;;;;;2.40;2.00;;;;;;;;;;639839;223;27491;-67
2022/04/20 14:02:27;;;;;;;2.20;1.90;;;;;;;;;;639870;223;27451;-67
2022/04/20 14:04:55;;;;;;;3.87;2.10;;;;;;;;;;639689;224;28073;-69
2022/04/20 14:07:23;;;;;;;6.13;1.90;;;;;;;;;;640730;222;27518;-69
2022/04/20 14:09:51;;;;;;;2.10;1.93;;;;;;;;;;640828;224;27901;-69
2022/04/20 14:12:21;;;;;;;3.77;2.10;;;;;;;;;;640754;224;27457;-68
2022/04/20 14:14:47;;;;;;;2.47;2.27;;;;;;;;;;640083;224;27528;-68
2022/04/20 14:17:16;;;;;;;1.80;1.70;;;;;;;;;;639975;224;27721;-69
2022/04/20 14:19:44;;;;;;;3.40;3.20;;;;;;;;;;639842;224;27499;-67
2022/04/20 14:22:13;;;;;;;2.87;2.67;;;;;;;;;;639756;224;27966;-68
2022/04/20 14:24:40;;;;;;;2.70;2.50;;;;;;;;;;639699;224;27460;-68
2022/04/20 14:32:17;;;;;;;3.00;2.27;;;;;;;;;;634163;226;25821;-68
2022/04/20 14:34:44;;;;;;;2.33;2.17;;;;;;;;;;634190;224;27468;-68
2022/04/20 14:37:12;;;;;;;2.77;2.57;;;;;;;;;;634324;224;27524;-68
2022/04/20 14:39:40;;;;;;;2.67;2.47;;;;;;;;;;638255;224;27990;-67
2022/04/20 14:42:08;;;;;;;3.90;2.47;;;;;;;;;;634084;224;27488;-68
2022/04/20 14:44:36;;;;;;;2.63;2.43;;;;;;;;;;634839;224;27557;-69
2022/04/20 14:47:06;;;;;;;2.57;2.37;;;;;;;;;;639369;224;27467;-69
2022/04/20 14:49:32;;;;;;;2.80;2.27;;;;;;;;;;639063;224;27493;-67
2022/04/20 14:52:00;;;;;;;2.37;2.17;;;;;;;;;;639285;224;27497;-68
2022/04/20 14:54:28;;;;;;;3.07;2.87;;;;;;;;;;634057;224;27993;-69
2022/04/20 14:56:56;;;;;;;2.33;2.13;;;;;;;;;;634049;225;27515;-68
2022/04/20 14:59:24;;;;;;;2.47;2.23;;;;;;;;;;633960;224;27557;-68
2022/04/20 15:01:52;;;;;;;2.03;1.93;;;;;;;;;;637107;224;27522;-69
2022/04/20 15:04:20;;;;;;;4.77;2.30;;;;;;;;;;639852;224;27542;-69
2022/04/20 15:06:50;;;;;;;2.73;2.50;;;;;;;;;;639420;224;28215;-68
2022/04/20 15:09:17;;;;;;;2.23;2.03;;;;;;;;;;639296;224;27747;-68
2022/04/20 15:11:45;;;;;;;3.47;2.40;;;;;;;;;;634385;224;27948;-68
2022/04/20 15:14:13;;;;;;;2.43;2.20;;;;;;;;;;634011;225;27548;-68
2022/04/20 15:16:41;;;;;;;4.60;1.87;;;;;;;;;;639821;224;27550;-71
2022/04/20 15:19:11;;;;;;;3.40;2.20;;;;;;;;;;641613;222;27549;-68
2022/04/20 15:21:37;;;;;;;1.60;1.50;;;;;;;;;;640698;223;27515;-70
2022/04/20 15:24:06;;;;;;;3.40;2.10;;;;;;;;;;640302;223;27598;-70
2022/04/20 15:26:34;;;;;;;24.00;11.97;;;;;;;;;;638646;223;27512;-70
2022/04/20 15:29:02;;;;;;;142.40;71.03;;;;;;;;;;637380;223;27932;-68
2022/04/20 15:31:30;;;;;;;229.47;107.33;;;;;;;;;;634714;224;27529;-70
2022/04/20 15:33:58;;;;;;;246.60;118.00;;;;;;;;;;634488;224;27497;-65
2022/04/20 15:36:26;;;;;;;219.27;116.50;;;;;;;;;;634553;224;28399;-70
2022/04/20 15:38:56;;;;;;;217.17;118.70;;;;;;;;;;634459;224;27467;-69
2022/04/20 15:41:22;;;;;;;230.93;118.70;;;;;;;;;;634281;224;27471;-68
2022/04/20 15:43:50;;;;;;;237.80;122.53;;;;;;;;;;639204;224;28195;-69
2022/04/20 15:46:18;;;;;;;238.77;141.97;;;;;;;;;;640220;224;27710;-65
2022/04/20 15:48:46;;;;;;;228.13;134.40;;;;;;;;;;640275;224;27518;-66
2022/04/20 15:51:14;;;;;;;204.77;128.10;;;;;;;;;;634927;224;27471;-66
2022/04/20 15:53:42;;;;;;;211.00;126.43;;;;;;;;;;635306;224;27460;-67
2022/04/20 16:01:18;;;;;;;179.57;121.17;;;;;;;;;;635634;224;27481;-67
2022/04/20 16:03:46;;;;;;;191.53;121.00;;;;;;;;;;633211;225;27486;-66
2022/04/20 16:06:14;;;;;;;190.97;119.53;;;;;;;;;;637095;224;27522;-68
2022/04/20 16:08:42;;;;;;;178.57;113.37;;;;;;;;;;632887;224;27500;-69
2022/04/20 16:11:10;;;;;;;168.03;113.07;;;;;;;;;;638639;224;27482;-65
2022/04/20 16:13:38;;;;;;;177.50;116.50;;;;;;;;;;639362;224;28132;-66
2022/04/20 16:16:06;;;;;;;163.70;111.13;;;;;;;;;;639395;224;27460;-67
2022/04/20 16:18:34;;;;;;;155.87;106.23;;;;;;;;;;639378;224;27464;-70
2022/04/20 16:21:04;;;;;;;159.13;104.03;;;;;;;;;;637571;224;27943;-67
2022/04/20 16:23:30;;;;;;;162.27;104.67;;;;;;;;;;639194;224;27454;-67
2022/04/20 16:25:58;;;;;;;154.77;101.40;;;;;;;;;;636548;224;27434;-67
2022/04/20 16:28:29;;;;;;;164.77;104.13;;;;;;;;;;635436;225;27534;-73
2022/04/20 16:30:55;;;;;;;176.23;103.47;;;;;;;;;;635376;224;27932;-68
2022/04/20 16:33:23;;;;;;;151.40;101.60;;;;;;;;;;635217;224;27473;-67
2022/04/20 16:35:51;;;;;;;153.77;101.13;;;;;;;;;;635094;224;27474;-71
2022/04/20 16:38:19;;;;;;;145.67;99.37;;;;;;;;;;634866;224;27500;-69
2022/04/20 16:40:48;;;;;;;152.30;94.37;;;;;;;;;;637904;224;27515;-68
2022/04/20 16:43:15;;;;;;;146.37;94.60;;;;;;;;;;640440;224;27653;-69
2022/04/20 16:45:43;;;;;;;130.93;88.60;;;;;;;;;;640503;224;27490;-69
2022/04/20 16:48:11;;;;;;;123.10;83.20;;;;;;;;;;640423;224;27524;-69
2022/04/20 16:50:39;;;;;;;113.47;78.27;;;;;;;;;;637296;224;27494;-69
2022/04/20 16:53:07;;;;;;;127.80;81.70;;;;;;;;;;634365;225;27528;-69
2022/04/20 16:55:36;;;;;;;132.90;79.87;;;;;;;;;;634682;224;27533;-69
2022/04/20 16:58:04;;;;;;;116.77;75.10;;;;;;;;;;639854;224;27523;-68
2022/04/20 17:00:32;;;;;;;109.00;75.07;;;;;;;;;;639753;224;27535;-69
2022/04/20 17:03:00;;;;;;;117.80;73.07;;;;;;;;;;639836;224;25823;-67
2022/04/20 17:05:28;;;;;;;113.73;69.87;;;;;;;;;;639879;222;27730;-69
2022/04/20 17:07:57;;;;;;;103.50;66.03;;;;;;;;;;640265;224;27501;-69
2022/04/20 17:10:24;;;;;;;104.43;67.30;;;;;;;;;;639767;224;25998;-68
2022/04/20 17:12:52;;;;;;;102.53;63.30;;;;;;;;;;638218;223;27461;-69
2022/04/20 17:15:20;;;;;;;96.50;61.00;;;;;;;;;;634138;224;27522;-69
2022/04/20 17:17:48;;;;;;;95.80;62.13;;;;;;;;;;634112;226;28021;-70
2022/04/20 17:27:58;;;;;;;84.70;57.97;;;;;;;;;;639479;224;27507;-69
2022/04/20 17:30:25;;;;;;;78.73;54.37;;;;;;;;;;637724;224;27528;-70
2022/04/20 17:32:53;;;;;;;84.03;57.50;;;;;;;;;;633902;226;28081;-70
2022/04/20 17:37:55;;;;;;;89.00;57.43;;;;;;;;;;634070;226;27499;-69
2022/04/20 17:40:23;;;;;;;71.87;51.97;;;;;;;;;;633942;224;27524;-69
2022/04/20 17:42:53;;;;;;;73.60;49.10;;;;;;;;;;635781;224;27962;-70
2022/04/20 17:45:20;;;;;;;67.87;50.20;;;;;;;;;;637216;224;27541;-69
2022/04/20 17:47:50;;;;;;;67.07;48.27;;;;;;;;;;637124;224;27465;-68
2022/04/20 17:50:16;;;;;;;70.47;47.67;;;;;;;;;;634677;224;27459;-69
2022/04/20 17:52:44;;;;;;;64.07;44.23;;;;;;;;;;634536;224;27463;-67
2022/04/20 17:55:12;;;;;;;63.53;45.80;;;;;;;;;;636178;224;27748;-70
2022/04/20 17:57:40;;;;;;;57.93;41.57;;;;;;;;;;640689;224;28366;-69
2022/04/20 18:00:08;;;;;;;50.80;40.90;;;;;;;;;;639027;224;27526;-73
2022/04/20 18:02:36;;;;;;;54.00;41.07;;;;;;;;;;634334;226;27450;-70
2022/04/20 18:05:05;;;;;;;45.77;37.57;;;;;;;;;;634365;224;25687;-69
2022/04/20 18:07:32;;;;;;;49.57;38.33;;;;;;;;;;634338;224;27479;-69
2022/04/20 18:10:01;;;;;;;49.50;39.50;;;;;;;;;;634337;224;27972;-69
2022/04/20 18:12:28;;;;;;;53.50;38.07;;;;;;;;;;634252;224;27472;-69
2022/04/20 18:14:56;;;;;;;48.63;36.40;;;;;;;;;;635138;224;27505;-69
2022/04/20 18:17:24;;;;;;;47.30;36.43;;;;;;;;;;640122;224;27596;-70
2022/04/20 18:19:52;;;;;;;46.27;35.80;;;;;;;;;;639994;224;27525;-69
2022/04/20 18:22:21;;;;;;;41.00;33.93;;;;;;;;;;639057;224;25794;-69
2022/04/20 18:24:51;;;;;;;46.00;33.60;;;;;;;;;;633991;224;27518;-69
2022/04/20 18:27:16;;;;;;;44.87;33.10;;;;;;;;;;638883;224;27462;-69
2022/04/20 18:29:45;;;;;;;46.53;36.50;;;;;;;;;;635021;224;27944;-69
2022/04/20 18:32:13;;;;;;;39.77;33.57;;;;;;;;;;634002;226;27506;-68
2022/04/20 18:34:42;;;;;;;46.87;32.90;;;;;;;;;;633997;224;27500;-69
2022/04/20 18:37:10;;;;;;;43.03;31.83;;;;;;;;;;634015;225;28124;-69
2022/04/20 18:39:38;;;;;;;42.13;30.67;;;;;;;;;;636447;224;27500;-68
2022/04/20 18:42:06;;;;;;;40.60;32.20;;;;;;;;;;639369;222;27466;-68
2022/04/20 18:44:34;;;;;;;42.70;31.20;;;;;;;;;;639317;224;27999;-69
2022/04/20 18:47:03;;;;;;;36.77;29.00;;;;;;;;;;634093;224;27552;-69
2022/04/20 18:49:30;;;;;;;36.47;29.23;;;;;;;;;;633971;225;27506;-69
2022/04/20 18:51:58;;;;;;;41.77;30.47;;;;;;;;;;633992;224;27506;-69
2022/04/20 18:59:33;;;;;;;31.00;26.30;;;;;;;;;;640432;224;27549;-71
2022/04/20 19:02:02;;;;;;;29.97;23.80;;;;;;;;;;634960;224;27939;-69
2022/04/20 19:07:04;;;;;;;28.47;24.30;;;;;;;;;;634671;224;27506;-67
2022/04/20 19:09:32;;;;;;;30.90;24.80;;;;;;;;;;634741;225;27539;-68
2022/04/20 19:12:00;;;;;;;34.60;24.37;;;;;;;;;;634361;224;27888;-68
2022/04/20 19:14:29;;;;;;;28.10;22.60;;;;;;;;;;634238;224;27471;-70
2022/04/20 19:16:58;;;;;;;28.13;22.70;;;;;;;;;;634400;224;27453;-67
2022/04/20 19:19:25;;;;;;;29.23;24.20;;;;;;;;;;634278;225;27494;-69
2022/04/20 19:21:54;;;;;;;29.17;22.40;;;;;;;;;;639799;224;27914;-69
2022/04/20 19:24:21;;;;;;;30.97;22.60;;;;;;;;;;640157;224;27519;-68
2022/04/20 19:26:49;;;;;;;32.67;23.63;;;;;;;;;;639510;224;27514;-67
2022/04/20 19:29:17;;;;;;;28.60;24.20;;;;;;;;;;636431;224;27566;-68
2022/04/20 19:31:47;;;;;;;27.60;22.20;;;;;;;;;;639860;224;27482;-68
2022/04/20 19:34:13;;;;;;;25.70;21.90;;;;;;;;;;639732;224;27469;-68
2022/04/20 19:36:41;;;;;;;27.93;22.93;;;;;;;;;;639484;224;27880;-67
2022/04/20 19:39:10;;;;;;;28.40;21.70;;;;;;;;;;639374;224;27907;-68
2022/04/20 19:41:37;;;;;;;26.83;20.87;;;;;;;;;;639755;224;27513;-68
2022/04/20 19:44:05;;;;;;;28.87;22.47;;;;;;;;;;639828;223;27527;-67
2022/04/20 19:46:33;;;;;;;28.63;22.40;;;;;;;;;;639898;224;28108;-68
2022/04/20 19:49:03;;;;;;;23.90;21.33;;;;;;;;;;639982;223;27507;-67
2022/04/20 19:51:30;;;;;;;27.67;22.00;;;;;;;;;;639765;224;27493;-67
2022/04/20 19:53:57;;;;;;;25.07;21.30;;;;;;;;;;639869;224;27470;-68
2022/04/20 19:56:25;;;;;;;29.73;22.00;;;;;;;;;;639599;224;27535;-67
2022/04/20 19:58:53;;;;;;;26.50;20.10;;;;;;;;;;639376;224;27523;-68
2022/04/20 20:01:22;;;;;;;29.43;20.23;;;;;;;;;;638125;224;27545;-69
2022/04/20 20:03:51;;;;;;;23.73;20.10;;;;;;;;;;640147;222;27892;-68
2022/04/20 20:06:18;;;;;;;23.10;20.63;;;;;;;;;;641138;223;27514;-69
2022/04/20 20:08:46;;;;;;;25.87;20.07;;;;;;;;;;640611;223;27495;-68
2022/04/20 20:11:14;;;;;;;22.17;17.10;;;;;;;;;;637021;224;27891;-68
2022/04/20 20:13:44;;;;;;;25.47;20.13;;;;;;;;;;634718;224;27784;-69
2022/04/20 20:16:10;;;;;;;23.27;20.27;;;;;;;;;;634784;224;27553;-68
2022/04/20 20:18:39;;;;;;;22.57;18.63;;;;;;;;;;639574;224;27502;-68
2022/04/20 20:21:06;;;;;;;24.73;19.20;;;;;;;;;;640181;224;27540;-68
2022/04/20 20:31:15;;;;;;;23.37;19.37;;;;;;;;;;634356;224;27535;-67
2022/04/20 20:33:44;;;;;;;20.90;17.17;;;;;;;;;;634221;224;28141;-68
2022/04/20 20:36:12;;;;;;;20.50;17.90;;;;;;;;;;637849;224;27477;-67
2022/04/20 20:38:40;;;;;;;21.90;17.43;;;;;;;;;;640304;224;27946;-68
2022/04/20 20:41:09;;;;;;;21.37;18.80;;;;;;;;;;639708;224;27563;-68
2022/04/20 20:43:36;;;;;;;20.27;18.13;;;;;;;;;;639161;224;27474;-68
2022/04/20 20:46:04;;;;;;;19.20;16.87;;;;;;;;;;636518;224;27975;-68
2022/04/20 20:51:06;;;;;;;24.83;18.77;;;;;;;;;;634028;224;27711;-66
2022/04/20 20:53:34;;;;;;;21.73;17.17;;;;;;;;;;633917;225;27924;-68
2022/04/20 20:56:02;;;;;;;21.43;17.30;;;;;;;;;;634043;224;27489;-68
2022/04/20 20:58:30;;;;;;;19.13;16.40;;;;;;;;;;634106;225;27552;-69
2022/04/20 21:00:58;;;;;;;19.37;16.87;;;;;;;;;;636839;224;27917;-70
2022/04/20 21:03:27;;;;;;;22.73;17.60;;;;;;;;;;639884;224;27509;-68
2022/04/20 21:05:54;;;;;;;18.90;16.90;;;;;;;;;;639753;224;27494;-67
2022/04/20 21:08:22;;;;;;;20.63;17.77;;;;;;;;;;635231;224;27755;-68
2022/04/20 21:10:50;;;;;;;19.03;16.87;;;;;;;;;;636510;224;27534;-68
2022/04/20 21:13:20;;;;;;;18.77;16.93;;;;;;;;;;639959;223;27500;-67
2022/04/20 21:15:47;;;;;;;18.50;16.47;;;;;;;;;;640108;222;28035;-68
2022/04/20 21:18:15;;;;;;;18.90;16.57;;;;;;;;;;640847;223;27524;-68
2022/04/20 21:20:42;;;;;;;19.20;16.10;;;;;;;;;;640516;223;27514;-68
2022/04/20 21:23:10;;;;;;;18.23;16.27;;;;;;;;;;640159;224;27564;-71
2022/04/20 21:25:38;;;;;;;20.83;17.03;;;;;;;;;;639739;224;27481;-68
2022/04/20 21:28:06;;;;;;;15.80;14.10;;;;;;;;;;640077;224;27496;-69
2022/04/20 21:30:34;;;;;;;19.40;16.47;;;;;;;;;;640388;224;27527;-68
2022/04/20 21:33:03;;;;;;;18.33;15.67;;;;;;;;;;639929;224;27473;-67
2022/04/20 21:35:31;;;;;;;18.20;16.37;;;;;;;;;;638354;224;27496;-71
2022/04/20 21:37:59;;;;;;;18.00;16.10;;;;;;;;;;634332;226;27508;-68
2022/04/20 21:43:01;;;;;;;17.90;15.47;;;;;;;;;;640161;224;27931;-68
2022/04/20 21:45:29;;;;;;;17.97;16.03;;;;;;;;;;638743;224;27520;-68
2022/04/20 21:47:58;;;;;;;17.53;15.43;;;;;;;;;;634385;226;27892;-68
2022/04/20 21:50:26;;;;;;;19.67;15.70;;;;;;;;;;635586;224;27496;-67
2022/04/20 21:52:54;;;;;;;16.80;15.13;;;;;;;;;;639964;223;27926;-68
2022/04/20 21:55:22;;;;;;;16.53;14.73;;;;;;;;;;639803;224;27453;-68
2022/04/20 21:57:50;;;;;;;15.87;14.17;;;;;;;;;;639210;224;27723;-67
2022/04/20 22:00:18;;;;;;;17.00;14.40;;;;;;;;;;639248;224;27472;-68
2022/04/20 22:10:28;;;;;;;16.80;14.33;;;;;;;;;;639851;224;27962;-68
2022/04/20 22:12:56;;;;;;;16.70;14.50;;;;;;;;;;637792;224;27552;-67
2022/04/20 22:15:25;;;;;;;18.90;14.30;;;;;;;;;;634033;224;27519;-69
2022/04/20 22:17:52;;;;;;;14.63;13.20;;;;;;;;;;634008;225;27545;-69
2022/04/20 22:20:20;;;;;;;15.90;14.30;;;;;;;;;;634089;224;27504;-67
2022/04/20 22:22:48;;;;;;;14.93;13.33;;;;;;;;;;633974;225;27532;-68
2022/04/20 22:25:17;;;;;;;15.50;13.93;;;;;;;;;;634556;224;27511;-69
2022/04/20 22:27:45;;;;;;;17.97;14.50;;;;;;;;;;640280;222;27522;-68
2022/04/20 22:30:13;;;;;;;14.73;13.20;;;;;;;;;;637075;223;27982;-68
2022/04/20 22:32:41;;;;;;;16.07;14.37;;;;;;;;;;640391;224;27510;-68
2022/04/20 22:35:09;;;;;;;13.90;12.13;;;;;;;;;;639861;224;27513;-68
2022/04/20 22:37:37;;;;;;;14.23;12.80;;;;;;;;;;634797;226;27553;-68
2022/04/20 22:40:05;;;;;;;15.10;13.07;;;;;;;;;;634622;224;27573;-69
2022/04/20 22:42:33;;;;;;;15.47;13.97;;;;;;;;;;634521;226;27596;-68
2022/04/20 22:45:01;;;;;;;15.77;14.27;;;;;;;;;;634580;224;27962;-69
2022/04/20 22:47:29;;;;;;;16.53;13.57;;;;;;;;;;634388;226;27469;-67
2022/04/20 22:49:57;;;;;;;14.70;13.10;;;;;;;;;;624825;224;27534;-68
2022/04/20 22:52:25;;;;;;;14.73;13.23;;;;;;;;;;634336;226;27531;-68
2022/04/20 22:54:53;;;;;;;16.03;13.37;;;;;;;;;;634311;224;27466;-68
2022/04/20 22:57:21;;;;;;;15.00;13.40;;;;;;;;;;634508;224;27460;-68
2022/04/20 22:59:51;;;;;;;14.10;12.70;;;;;;;;;;634277;226;25812;-68
2022/04/20 23:02:18;;;;;;;16.10;13.83;;;;;;;;;;639839;224;27525;-69
2022/04/20 23:04:47;;;;;;;14.90;13.40;;;;;;;;;;639879;223;27512;-69
2022/04/20 23:07:13;;;;;;;17.13;14.47;;;;;;;;;;639809;224;27928;-69
2022/04/20 23:09:41;;;;;;;13.33;12.00;;;;;;;;;;640063;224;27455;-68
2022/04/20 23:12:10;;;;;;;15.20;12.53;;;;;;;;;;639885;224;27498;-67
2022/04/20 23:14:38;;;;;;;12.93;11.60;;;;;;;;;;639912;224;28029;-68
2022/04/20 23:17:06;;;;;;;14.53;11.43;;;;;;;;;;639452;224;27491;-69
2022/04/20 23:19:34;;;;;;;15.60;13.10;;;;;;;;;;635546;224;27507;-69
2022/04/20 23:22:02;;;;;;;15.40;12.17;;;;;;;;;;633996;224;27782;-67
2022/04/20 23:29:47;;;;;;;12.93;11.57;;;;;;;;;;628623;227;27526;-68
2022/04/20 23:32:15;;;;;;;13.53;12.23;;;;;;;;;;633637;226;27931;-68
2022/04/20 23:34:44;;;;;;;12.60;11.10;;;;;;;;;;634035;225;27893;-67
2022/04/20 23:37:11;;;;;;;13.87;12.30;;;;;;;;;;637268;224;27454;-68
2022/04/20 23:39:40;;;;;;;12.53;11.33;;;;;;;;;;640558;222;27561;-68
2022/04/20 23:42:08;;;;;;;14.40;12.07;;;;;;;;;;641231;223;28258;-68
2022/04/20 23:44:36;;;;;;;11.63;10.40;;;;;;;;;;641034;223;25364;-68
2022/04/20 23:47:04;;;;;;;13.13;11.70;;;;;;;;;;640936;224;27468;-67
2022/04/20 23:49:32;;;;;;;12.10;10.93;;;;;;;;;;640744;223;27474;-68
2022/04/20 23:52:00;;;;;;;14.80;11.47;;;;;;;;;;640606;224;27500;-68
2022/04/20 23:54:28;;;;;;;11.90;10.70;;;;;;;;;;639927;224;27918;-68
2022/04/20 23:56:56;;;;;;;13.00;10.60;;;;;;;;;;639955;224;27487;-68
2022/04/20 23:59:24;;;;;;;10.33;9.33;;;;;;;;;;639760;224;28189;-67
